sensor_id;sensor_type;location;lat;lon;timestamp;P1;durP1;ratioP1;P2;durP2;ratioP2
22017;SDS011;11173;51.050;7.108;2023-03-11T12:42:37;0.50;;;0.45;;
22017;SDS011;11173;51.050;7.108;2023-03-11T12:52:58;0.50;;;0.50;;
22017;SDS011;11173;51.050;7.108;2023-03-11T13:14:18;0.63;;;0.60;;
22017;SDS011;11173;51.050;7.108;2023-03-11T13:24:47;0.50;;;0.50;;
22017;SDS011;11173;51.050;7.108;2023-03-11T13:35:17;0.50;;;0.50;;
22017;SDS011;11173;51.050;7.108;2023-03-11T13:45:41;1.23;;;0.80;;
22017;SDS011;11173;51.050;7.108;2023-03-11T13:56:05;0.80;;;0.80;;
22017;SDS011;11173;51.050;7.108;2023-03-11T14:06:25;1.73;;;0.75;;
22017;SDS011;11173;51.050;7.108;2023-03-11T14:16:49;0.77;;;0.77;;
22017;SDS011;11173;51.050;7.108;2023-03-11T14:27:12;1.20;;;0.73;;
22017;SDS011;11173;51.050;7.108;2023-03-11T14:37:35;0.70;;;0.70;;
22017;SDS011;11173;51.050;7.108;2023-03-11T14:48:04;0.70;;;0.70;;
22017;SDS011;11173;51.050;7.108;2023-03-11T14:58:27;0.73;;;0.73;;
22017;SDS011;11173;51.050;7.108;2023-03-11T15:08:54;0.77;;;0.77;;
22017;SDS011;11173;51.050;7.108;2023-03-11T15:29:45;1.38;;;1.10;;
22017;SDS011;11173;51.050;7.108;2023-03-11T15:40:10;1.60;;;1.50;;
22017;SDS011;11173;51.050;7.108;2023-03-11T15:50:31;1.98;;;1.55;;
22017;SDS011;11173;51.050;7.108;2023-03-11T16:00:53;1.83;;;1.10;;
22017;SDS011;11173;51.050;7.108;2023-03-11T16:11:15;0.50;;;0.50;;
22017;SDS011;11173;51.050;7.108;2023-03-11T16:21:40;0.50;;;0.50;;
22017;SDS011;11173;51.050;7.108;2023-03-11T16:32:01;0.70;;;0.70;;
22017;SDS011;11173;51.050;7.108;2023-03-11T16:42:21;0.60;;;0.60;;
22017;SDS011;11173;51.050;7.108;2023-03-11T16:52:43;0.50;;;0.50;;
22017;SDS011;11173;51.050;7.108;2023-03-11T17:03:03;0.52;;;0.52;;
22017;SDS011;11173;51.050;7.108;2023-03-11T17:13:24;0.50;;;0.50;;
22017;SDS011;11173;51.050;7.108;2023-03-11T17:23:44;0.60;;;0.60;;
22017;SDS011;11173;51.050;7.108;2023-03-11T17:34:05;0.60;;;0.60;;
22017;SDS011;11173;51.050;7.108;2023-03-11T17:44:26;0.70;;;0.70;;
22017;SDS011;11173;51.050;7.108;2023-03-11T17:54:46;0.70;;;0.70;;
22017;SDS011;11173;51.050;7.108;2023-03-11T18:05:07;0.70;;;0.70;;
22017;SDS011;11173;51.050;7.108;2023-03-11T18:15:28;0.90;;;0.90;;
22017;SDS011;11173;51.050;7.108;2023-03-11T18:25:50;1.00;;;1.00;;
22017;SDS011;11173;51.050;7.108;2023-03-11T18:35:54;0.90;;;0.90;;
22017;SDS011;11173;51.050;7.108;2023-03-11T18:45:55;0.90;;;0.90;;
22017;SDS011;11173;51.050;7.108;2023-03-11T18:56:02;4.28;;;2.92;;
22017;SDS011;11173;51.050;7.108;2023-03-11T19:06:03;4.03;;;3.22;;
22017;SDS011;11173;51.050;7.108;2023-03-11T19:16:04;2.20;;;2.10;;
22017;SDS011;11173;51.050;7.108;2023-03-11T19:26:04;1.90;;;1.80;;
22017;SDS011;11173;51.050;7.108;2023-03-11T19:36:05;2.30;;;2.10;;
22017;SDS011;11173;51.050;7.108;2023-03-11T19:46:07;6.25;;;4.32;;
22017;SDS011;11173;51.050;7.108;2023-03-11T19:56:07;2.58;;;2.40;;
22017;SDS011;11173;51.050;7.108;2023-03-11T20:06:08;2.05;;;1.90;;
22017;SDS011;11173;51.050;7.108;2023-03-11T20:16:10;3.90;;;3.60;;
22017;SDS011;11173;51.050;7.108;2023-03-11T20:26:11;3.17;;;2.88;;
22017;SDS011;11173;51.050;7.108;2023-03-11T20:36:15;2.75;;;2.60;;
22017;SDS011;11173;51.050;7.108;2023-03-11T20:46:16;3.72;;;2.90;;
22017;SDS011;11173;51.050;7.108;2023-03-11T20:56:17;3.30;;;3.00;;
22017;SDS011;11173;51.050;7.108;2023-03-11T21:06:19;4.15;;;3.70;;
22017;SDS011;11173;51.050;7.108;2023-03-11T21:16:20;5.57;;;4.07;;
22017;SDS011;11173;51.050;7.108;2023-03-11T21:26:20;4.20;;;3.80;;
22017;SDS011;11173;51.050;7.108;2023-03-11T21:36:21;3.58;;;3.25;;
22017;SDS011;11173;51.050;7.108;2023-03-11T21:46:22;3.25;;;2.60;;
22017;SDS011;11173;51.050;7.108;2023-03-11T21:56:23;3.55;;;2.90;;
22017;SDS011;11173;51.050;7.108;2023-03-11T22:06:23;2.70;;;2.50;;
22017;SDS011;11173;51.050;7.108;2023-03-11T22:16:24;3.05;;;2.85;;
22017;SDS011;11173;51.050;7.108;2023-03-11T22:26:24;2.58;;;2.47;;
22017;SDS011;11173;51.050;7.108;2023-03-11T22:36:25;3.22;;;2.92;;
22017;SDS011;11173;51.050;7.108;2023-03-11T22:46:25;3.22;;;2.72;;
22017;SDS011;11173;51.050;7.108;2023-03-11T22:56:25;2.80;;;2.60;;
22017;SDS011;11173;51.050;7.108;2023-03-11T23:06:25;2.90;;;2.70;;
22017;SDS011;11173;51.050;7.108;2023-03-11T23:16:26;3.05;;;2.75;;
22017;SDS011;11173;51.050;7.108;2023-03-11T23:26:27;4.97;;;2.97;;
22017;SDS011;11173;51.050;7.108;2023-03-11T23:36:28;2.80;;;2.60;;
22017;SDS011;11173;51.050;7.108;2023-03-11T23:46:29;3.33;;;2.67;;
22017;SDS011;11173;51.050;7.108;2023-03-11T23:56:30;2.10;;;2.00;;
